createdAt,value
2018-02-21T00:00:35.636Z,101925.28
2018-02-21T00:03:03.192Z,101921.84
2018-02-21T00:05:30.736Z,101930.39
2018-02-21T00:07:58.490Z,101929.50
2018-02-21T00:10:26.075Z,101936.30
2018-02-21T00:12:53.603Z,101932.22
2018-02-21T00:15:21.127Z,101933.27
2018-02-21T00:17:48.667Z,101940.59
2018-02-21T00:20:17.073Z,101941.52
2018-02-21T00:22:44.626Z,101942.23
2018-02-21T00:25:12.180Z,101942.83
2018-02-21T00:27:39.712Z,101941.33
2018-02-21T00:30:07.256Z,101939.84
2018-02-21T00:32:34.797Z,101937.50
2018-02-21T00:35:02.344Z,101938.81
2018-02-21T00:37:29.884Z,101941.05
2018-02-21T00:39:57.392Z,101943.69
2018-02-21T00:42:24.936Z,101945.30
2018-02-21T00:44:52.458Z,101952.63
2018-02-21T00:47:19.977Z,101951.98
2018-02-21T00:49:47.523Z,101953.02
2018-02-21T00:52:15.090Z,101950.52
2018-02-21T00:54:42.592Z,101953.23
2018-02-21T00:57:10.130Z,101955.89
2018-02-21T00:59:37.669Z,101950.72
2018-02-21T01:02:05.208Z,101952.08
2018-02-21T01:04:32.733Z,101951.97
2018-02-21T01:07:00.278Z,101956.32
2018-02-21T01:09:27.821Z,101954.39
2018-02-21T01:11:55.340Z,101949.43
2018-02-21T01:14:22.886Z,101953.54
2018-02-21T01:16:50.400Z,101957.95
2018-02-21T01:19:17.946Z,101962.55
2018-02-21T01:21:45.493Z,101960.77
2018-02-21T01:24:13.011Z,101961.84
2018-02-21T01:26:40.563Z,101966.81
2018-02-21T01:29:08.077Z,101965.80
2018-02-21T01:31:35.889Z,101966.77
2018-02-21T01:34:03.451Z,101969.39
2018-02-21T01:36:30.980Z,101970.48
2018-02-21T01:38:58.528Z,101968.52
2018-02-21T01:41:26.088Z,101969.91
2018-02-21T01:43:53.697Z,101972.77
2018-02-21T01:46:21.234Z,101967.29
2018-02-21T01:48:48.789Z,101975.78
2018-02-21T01:51:16.309Z,101975.98
2018-02-21T01:53:43.832Z,101969.18
2018-02-21T01:56:11.403Z,101970.88
2018-02-21T01:58:38.923Z,101977.45
2018-02-21T02:01:06.453Z,101977.72
2018-02-21T02:03:33.982Z,101976.67
2018-02-21T02:06:01.534Z,101986.77
2018-02-21T02:08:29.115Z,101988.31
2018-02-21T02:10:56.679Z,101989.24
2018-02-21T02:13:24.204Z,101996.39
2018-02-21T02:15:51.759Z,101989.08
2018-02-21T02:18:19.283Z,101988.27
2018-02-21T02:20:46.805Z,101990.09
2018-02-21T02:23:14.354Z,101992.91
2018-02-21T02:25:41.865Z,101993.22
2018-02-21T02:28:09.429Z,101999.33
2018-02-21T02:30:36.963Z,102000.71
2018-02-21T02:33:04.510Z,102004.05
2018-02-21T02:35:32.012Z,102003.80
2018-02-21T02:37:59.842Z,102001.60
2018-02-21T02:40:27.410Z,102000.06
2018-02-21T02:42:54.958Z,102005.20
2018-02-21T02:45:22.537Z,102000.52
2018-02-21T02:47:50.070Z,101997.27
2018-02-21T02:50:17.605Z,101996.58
2018-02-21T02:52:45.139Z,101998.52
2018-02-21T02:55:12.666Z,102008.75
2018-02-21T02:57:40.216Z,101997.19
2018-02-21T03:00:07.738Z,102002.77
2018-02-21T03:02:35.539Z,101998.82
2018-02-21T03:05:03.302Z,102000.14
2018-02-21T03:07:30.842Z,101993.63
2018-02-21T03:09:58.377Z,101995.81
2018-02-21T03:12:25.924Z,101993.02
2018-02-21T03:14:53.764Z,102000.75
2018-02-21T03:17:21.376Z,102001.17
2018-02-21T03:19:48.878Z,102003.34
2018-02-21T03:22:16.389Z,102013.46
2018-02-21T03:24:43.986Z,102008.75
2018-02-21T03:27:11.514Z,102007.73
2018-02-21T03:29:39.087Z,102006.63
2018-02-21T03:32:06.619Z,102009.33
2018-02-21T03:34:34.224Z,102001.20
2018-02-21T03:37:01.801Z,101998.27
2018-02-21T03:39:29.314Z,102006.23
2018-02-21T03:41:57.126Z,102003.70
2018-02-21T03:44:24.658Z,102005.84
2018-02-21T03:46:52.446Z,102000.81
2018-02-21T03:49:19.983Z,101993.36
2018-02-21T03:51:47.506Z,101988.06
2018-02-21T03:54:15.177Z,101992.63
2018-02-21T03:56:42.775Z,101985.02
2018-02-21T03:59:10.326Z,101979.27
2018-02-21T04:01:37.843Z,101975.09
2018-02-21T04:04:05.372Z,101978.65
2018-02-21T04:06:32.962Z,101979.19
2018-02-21T04:09:00.500Z,101982.52
2018-02-21T04:11:28.257Z,101985.95
2018-02-21T04:13:56.046Z,101983.25
2018-02-21T04:16:23.600Z,101986.59
2018-02-21T04:18:51.132Z,101983.05
2018-02-21T04:21:18.686Z,101982.20
2018-02-21T04:23:46.235Z,101987.95
2018-02-21T04:26:13.774Z,101988.56
2018-02-21T04:28:41.457Z,102002.59
2018-02-21T04:31:09.007Z,102001.61
2018-02-21T04:33:36.514Z,102003.42
2018-02-21T04:36:04.098Z,101998.83
2018-02-21T04:38:31.615Z,101996.33
2018-02-21T04:40:59.396Z,101994.31
2018-02-21T04:43:26.944Z,101992.47
2018-02-21T04:45:54.481Z,101998.20
2018-02-21T04:48:22.049Z,102000.48
2018-02-21T04:50:49.846Z,101999.13
2018-02-21T04:53:17.396Z,102005.26
2018-02-21T04:58:55.564Z,102008.12
2018-02-21T05:01:23.096Z,102012.14
2018-02-21T05:03:50.965Z,102014.58
2018-02-21T05:06:18.515Z,102009.14
2018-02-21T05:08:46.296Z,102009.95
2018-02-21T05:11:13.843Z,102004.11
2018-02-21T05:13:41.429Z,102014.05
2018-02-21T05:16:08.999Z,102022.09
2018-02-21T05:18:36.547Z,102024.67
2018-02-21T05:21:04.140Z,102025.67
2018-02-21T05:23:31.685Z,102031.80
2018-02-21T05:25:59.553Z,102047.52
2018-02-21T05:28:27.057Z,102046.50
2018-02-21T05:30:54.958Z,102043.78
2018-02-21T05:33:22.478Z,102039.87
2018-02-21T05:35:50.029Z,102043.36
2018-02-21T05:38:17.595Z,102048.86
2018-02-21T05:40:45.138Z,102057.73
2018-02-21T05:43:12.718Z,102056.73
2018-02-21T05:45:40.524Z,102059.70
2018-02-21T05:48:08.041Z,102069.81
2018-02-21T05:50:35.598Z,102067.58
2018-02-21T05:53:03.425Z,102074.17
2018-02-21T05:55:30.991Z,102070.34
2018-02-21T05:57:58.518Z,102077.30
2018-02-21T06:00:26.125Z,102078.09
2018-02-21T06:02:53.674Z,102078.47
2018-02-21T06:05:21.301Z,102076.72
2018-02-21T06:07:48.863Z,102078.19
2018-02-21T06:10:16.422Z,102078.32
2018-02-21T06:12:43.946Z,102080.70
2018-02-21T06:15:11.543Z,102087.02
2018-02-21T06:17:39.096Z,102083.61
2018-02-21T06:20:06.664Z,102078.47
2018-02-21T06:22:34.221Z,102081.09
2018-02-21T06:25:01.809Z,102074.02
2018-02-21T06:27:29.320Z,102072.95
2018-02-21T06:29:56.878Z,102070.48
2018-02-21T06:32:24.419Z,102073.67
2018-02-21T06:34:51.967Z,102070.13
2018-02-21T06:37:19.544Z,102069.80
2018-02-21T06:39:47.474Z,102069.94
2018-02-21T06:42:15.021Z,102067.32
2018-02-21T06:44:42.545Z,102078.70
2018-02-21T06:47:10.061Z,102076.84
2018-02-21T06:49:37.919Z,102080.88
2018-02-21T06:52:05.462Z,102082.59
2018-02-21T06:54:33.049Z,102084.39
2018-02-21T06:57:00.597Z,102095.11
2018-02-21T06:59:28.366Z,102097.86
2018-02-21T07:01:55.927Z,102096.64
2018-02-21T07:04:23.814Z,102088.35
2018-02-21T07:06:51.357Z,102099.27
2018-02-21T07:09:19.123Z,102102.05
2018-02-21T07:11:46.653Z,102098.41
2018-02-21T07:14:14.243Z,102099.85
2018-02-21T07:16:41.771Z,102100.86
2018-02-21T07:19:09.291Z,102103.33
2018-02-21T07:21:36.826Z,102102.69
2018-02-21T07:24:04.382Z,102107.87
2018-02-21T07:26:31.981Z,102102.77
2018-02-21T07:28:59.502Z,102106.52
2018-02-21T07:31:27.402Z,102109.11
2018-02-21T07:33:55.602Z,102111.73
2018-02-21T07:36:23.167Z,102109.19
2018-02-21T07:38:50.681Z,102111.91
2018-02-21T07:41:18.231Z,102106.95
2018-02-21T07:43:45.795Z,102113.25
2018-02-21T07:46:13.330Z,102112.28
2018-02-21T07:48:40.896Z,102117.17
2018-02-21T07:51:08.452Z,102123.06
2018-02-21T07:53:36.017Z,102118.97
2018-02-21T07:56:03.588Z,102122.41
2018-02-21T07:58:31.368Z,102122.92
2018-02-21T08:00:58.949Z,102119.91
2018-02-21T08:03:26.786Z,102114.57
2018-02-21T08:05:54.341Z,102111.05
2018-02-21T08:08:21.854Z,102112.17
2018-02-21T08:10:49.428Z,102121.87
2018-02-21T08:13:16.951Z,102125.25
2018-02-21T08:15:44.466Z,102124.65
2018-02-21T08:18:12.024Z,102121.75
2018-02-21T08:20:39.583Z,102125.42
2018-02-21T08:23:07.142Z,102128.09
2018-02-21T08:25:34.701Z,102125.30
2018-02-21T08:28:02.246Z,102122.22
2018-02-21T08:30:29.801Z,102131.31
2018-02-21T08:32:57.622Z,102129.31
2018-02-21T08:35:25.488Z,102129.58
2018-02-21T08:37:53.008Z,102135.34
2018-02-21T08:40:20.656Z,102136.96
2018-02-21T08:42:48.216Z,102143.48
2018-02-21T08:45:15.749Z,102146.42
2018-02-21T08:47:43.277Z,102151.75
2018-02-21T08:50:10.868Z,102146.13
2018-02-21T08:52:38.398Z,102147.20
2018-02-21T08:55:06.192Z,102148.95
2018-02-21T08:57:33.792Z,102147.94
2018-02-21T09:00:01.353Z,102152.41
2018-02-21T09:02:28.914Z,102152.44
2018-02-21T09:04:56.434Z,102148.02
2018-02-21T09:07:24.012Z,102152.04
2018-02-21T09:09:51.543Z,102146.66
2018-02-21T09:12:19.337Z,102144.30
2018-02-21T09:14:46.872Z,102141.86
2018-02-21T09:17:14.407Z,102138.73
2018-02-21T09:19:41.957Z,102142.03
2018-02-21T09:22:09.501Z,102120.61
2018-02-21T09:24:37.052Z,102129.16
2018-02-21T09:27:04.559Z,102116.58
2018-02-21T09:29:32.361Z,102120.39
2018-02-21T09:31:59.936Z,102123.80
2018-02-21T09:34:27.460Z,102128.42
2018-02-21T09:36:55.012Z,102125.69
2018-02-21T09:39:22.530Z,102123.43
2018-02-21T09:41:50.053Z,102121.45
2018-02-21T09:44:17.906Z,102115.98
2018-02-21T09:46:45.445Z,102120.83
2018-02-21T09:49:13.085Z,102122.42
2018-02-21T09:51:40.662Z,102126.39
2018-02-21T09:54:08.180Z,102127.73
2018-02-21T09:56:35.819Z,102127.36
2018-02-21T09:59:03.355Z,102125.20
2018-02-21T10:01:30.944Z,102125.66
2018-02-21T10:03:58.506Z,102122.00
2018-02-21T10:06:26.420Z,102133.58
2018-02-21T10:08:53.931Z,102131.39
2018-02-21T10:11:21.787Z,102129.02
2018-02-21T10:13:49.558Z,102134.00
2018-02-21T10:16:17.111Z,102127.64
2018-02-21T10:18:44.983Z,102122.55
2018-02-21T10:21:12.850Z,102120.95
2018-02-21T10:23:40.395Z,102124.61
2018-02-21T10:26:07.934Z,102124.86
2018-02-21T10:28:35.466Z,102119.64
2018-02-21T10:31:03.046Z,102114.80
2018-02-21T10:33:30.684Z,102116.44
2018-02-21T10:35:58.529Z,102112.06
2018-02-21T10:38:26.072Z,102107.02
2018-02-21T10:40:53.670Z,102117.14
2018-02-21T10:43:21.240Z,102108.88
2018-02-21T10:45:48.768Z,102109.88
2018-02-21T10:48:16.329Z,102109.15
2018-02-21T10:50:43.831Z,102112.61
2018-02-21T10:53:11.973Z,102110.84
2018-02-21T10:55:39.494Z,102111.63
2018-02-21T10:58:07.054Z,102109.00
2018-02-21T11:00:40.294Z,102107.64
2018-02-21T11:03:07.839Z,102109.57
2018-02-21T11:05:35.366Z,102108.53
2018-02-21T11:08:02.921Z,102104.73
2018-02-21T11:10:30.573Z,102109.20
2018-02-21T11:12:58.128Z,102110.16
2018-02-21T11:15:25.648Z,102101.41
2018-02-21T11:17:53.199Z,102104.73
2018-02-21T11:20:20.705Z,102109.45
2018-02-21T11:22:48.526Z,102108.29
2018-02-21T11:25:16.055Z,102114.66
2018-02-21T11:27:43.678Z,102121.06
2018-02-21T11:30:11.198Z,102120.78
2018-02-21T11:32:38.778Z,102112.50
2018-02-21T11:35:06.315Z,102114.80
2018-02-21T11:37:34.091Z,102115.73
2018-02-21T11:40:01.895Z,102118.51
2018-02-21T11:42:29.424Z,102124.52
2018-02-21T11:44:56.962Z,102121.39
2018-02-21T11:47:24.495Z,102120.50
2018-02-21T11:49:52.077Z,102113.84
2018-02-21T11:52:19.679Z,102118.86
2018-02-21T11:54:47.189Z,102120.48
2018-02-21T11:57:14.754Z,102119.01
2018-02-21T11:59:42.299Z,102116.31
2018-02-21T12:02:09.861Z,102120.47
2018-02-21T12:04:37.439Z,102119.52
2018-02-21T12:07:04.961Z,102122.08
2018-02-21T12:09:32.523Z,102118.95
2018-02-21T12:12:00.079Z,102123.16
2018-02-21T12:14:27.682Z,102121.63
2018-02-21T12:16:55.575Z,102116.19
2018-02-21T12:19:23.364Z,102117.23
2018-02-21T12:21:50.889Z,102116.73
2018-02-21T12:24:18.455Z,102120.82
2018-02-21T12:26:46.028Z,102117.25
2018-02-21T12:29:13.579Z,102111.06
2018-02-21T12:31:41.639Z,102109.13
2018-02-21T12:34:09.212Z,102109.30
2018-02-21T12:36:36.739Z,102107.40
2018-02-21T12:39:09.854Z,102114.76
2018-02-21T12:41:43.277Z,102108.67
2018-02-21T12:44:11.137Z,102108.06
2018-02-21T12:46:38.657Z,102104.94
2018-02-21T12:49:06.197Z,102102.20
2018-02-21T12:51:33.722Z,102112.52
2018-02-21T12:54:01.320Z,102100.86
2018-02-21T12:56:28.833Z,102106.55
2018-02-21T12:58:56.806Z,102107.23
2018-02-21T13:01:24.334Z,102108.06
2018-02-21T13:03:51.894Z,102106.59
2018-02-21T13:06:19.426Z,102099.23
2018-02-21T13:08:46.954Z,102103.53
2018-02-21T13:11:15.609Z,102093.35
2018-02-21T13:13:43.157Z,102093.88
2018-02-21T13:16:10.781Z,102091.87
2018-02-21T13:18:38.308Z,102091.61
2018-02-21T13:21:05.849Z,102089.34
2018-02-21T13:23:33.486Z,102090.92
2018-02-21T13:26:01.044Z,102089.55
2018-02-21T13:28:28.620Z,102078.45
2018-02-21T13:30:56.172Z,102083.20
2018-02-21T13:33:23.706Z,102076.07
2018-02-21T13:35:51.346Z,102075.74
2018-02-21T13:38:18.908Z,102076.44
2018-02-21T13:40:46.802Z,102069.39
2018-02-21T13:43:14.638Z,102068.02
2018-02-21T13:45:42.190Z,102069.02
2018-02-21T13:48:09.704Z,102073.75
2018-02-21T13:50:38.670Z,102063.82
2018-02-21T13:53:06.198Z,102062.66
2018-02-21T13:55:33.756Z,102056.25
2018-02-21T13:58:01.317Z,102064.41
2018-02-21T14:00:28.917Z,102055.46
2018-02-21T14:02:56.906Z,102057.04
2018-02-21T14:05:24.567Z,102058.31
2018-02-21T14:07:52.120Z,102058.39
2018-02-21T14:10:19.686Z,102056.25
2018-02-21T14:12:47.233Z,102054.94
2018-02-21T14:15:14.801Z,102057.89
2018-02-21T14:17:42.338Z,102048.55
2018-02-21T14:20:09.861Z,102052.44
2018-02-21T14:22:37.470Z,102049.64
2018-02-21T14:25:05.025Z,102049.30
2018-02-21T14:27:32.989Z,102043.37
2018-02-21T14:30:00.531Z,102044.36
2018-02-21T14:32:28.064Z,102045.28
2018-02-21T14:34:55.683Z,102043.73
2018-02-21T14:37:23.208Z,102039.33
2018-02-21T14:39:50.750Z,102035.23
2018-02-21T14:42:18.261Z,102034.56
2018-02-21T14:44:45.869Z,102036.72
2018-02-21T14:47:13.521Z,102038.92
2018-02-21T14:49:41.343Z,102035.09
2018-02-21T14:52:08.898Z,102045.81
2018-02-21T14:54:36.457Z,102042.72
2018-02-21T14:57:04.232Z,102048.29
2018-02-21T14:59:31.779Z,102045.72
2018-02-21T15:01:59.317Z,102042.39
2018-02-21T15:04:26.845Z,102033.20
2018-02-21T15:06:54.395Z,102035.03
2018-02-21T15:09:22.232Z,102041.02
2018-02-21T15:11:49.792Z,102041.25
2018-02-21T15:14:17.329Z,102046.38
2018-02-21T15:16:44.894Z,102047.66
2018-02-21T15:19:12.410Z,102046.25
2018-02-21T15:21:39.961Z,102050.41
2018-02-21T15:24:07.485Z,102043.16
2018-02-21T15:26:35.076Z,102041.23
2018-02-21T15:29:02.610Z,102046.87
2018-02-21T15:31:30.918Z,102048.38
2018-02-21T15:33:58.448Z,102051.09
2018-02-21T15:36:25.982Z,102051.19
2018-02-21T15:38:53.582Z,102053.01
2018-02-21T15:41:21.161Z,102053.16
2018-02-21T15:43:48.663Z,102052.66
2018-02-21T15:46:16.200Z,102047.73
2018-02-21T15:48:43.785Z,102056.28
2018-02-21T15:51:11.337Z,102055.44
2018-02-21T15:53:38.859Z,102062.36
2018-02-21T15:56:06.631Z,102056.86
2018-02-21T15:58:34.197Z,102061.89
2018-02-21T16:01:01.793Z,102063.83
2018-02-21T16:03:29.343Z,102066.80
2018-02-21T16:05:56.925Z,102066.44
2018-02-21T16:08:24.489Z,102068.70
2018-02-21T16:10:52.125Z,102068.95
2018-02-21T16:13:19.656Z,102063.99
2018-02-21T16:15:47.215Z,102070.09
2018-02-21T16:18:14.774Z,102068.67
2018-02-21T16:20:42.305Z,102075.92
2018-02-21T16:23:10.184Z,102068.72
2018-02-21T16:25:37.722Z,102073.43
2018-02-21T16:28:05.306Z,102078.75
2018-02-21T16:30:32.830Z,102072.99
2018-02-21T16:33:00.367Z,102081.95
2018-02-21T16:35:27.952Z,102082.05
2018-02-21T16:37:55.523Z,102082.94
2018-02-21T16:40:23.340Z,102082.94
2018-02-21T16:42:51.145Z,102079.44
2018-02-21T16:45:18.730Z,102083.63
2018-02-21T16:47:46.317Z,102084.44
2018-02-21T16:50:13.851Z,102083.81
2018-02-21T16:52:41.453Z,102088.43
2018-02-21T16:55:08.983Z,102085.60
2018-02-21T16:57:36.564Z,102091.42
2018-02-21T17:00:04.106Z,102092.61
2018-02-21T17:02:31.686Z,102100.48
2018-02-21T17:04:59.226Z,102100.58
2018-02-21T17:07:26.818Z,102100.71
2018-02-21T17:09:54.371Z,102101.42
2018-02-21T17:12:22.218Z,102106.41
2018-02-21T17:14:49.797Z,102104.42
2018-02-21T17:17:17.526Z,102109.91
2018-02-21T17:19:45.083Z,102112.85
2018-02-21T17:22:12.659Z,102109.50
2018-02-21T17:24:40.194Z,102110.42
2018-02-21T17:27:07.839Z,102109.91
2018-02-21T17:29:35.388Z,102112.50
2018-02-21T17:32:03.126Z,102105.69
2018-02-21T17:34:31.116Z,102116.10
2018-02-21T17:36:58.813Z,102116.84
2018-02-21T17:39:26.389Z,102116.95
2018-02-21T17:41:54.016Z,102116.86
2018-02-21T17:44:21.558Z,102121.64
2018-02-21T17:46:49.395Z,102121.42
2018-02-21T17:49:16.983Z,102115.23
2018-02-21T17:51:44.589Z,102118.44
2018-02-21T17:54:12.267Z,102123.08
2018-02-21T17:56:40.190Z,102118.06
2018-02-21T17:59:08.021Z,102117.47
2018-02-21T18:01:35.558Z,102126.63
2018-02-21T18:04:03.389Z,102121.33
2018-02-21T18:06:31.136Z,102125.27
2018-02-21T18:08:58.772Z,102124.53
2018-02-21T18:11:26.523Z,102129.27
2018-02-21T18:13:54.115Z,102129.56
2018-02-21T18:16:21.863Z,102126.83
2018-02-21T18:18:49.607Z,102134.44
2018-02-21T18:21:22.876Z,102138.36
2018-02-21T18:23:50.430Z,102138.58
2018-02-21T18:26:18.260Z,102142.34
2018-02-21T18:28:45.846Z,102132.85
2018-02-21T18:31:13.748Z,102137.14
2018-02-21T18:33:41.290Z,102136.90
2018-02-21T18:36:08.908Z,102138.91
2018-02-21T18:38:36.411Z,102138.20
2018-02-21T18:41:03.919Z,102146.28
2018-02-21T18:43:31.491Z,102149.23
2018-02-21T18:45:59.171Z,102146.28
2018-02-21T18:48:26.755Z,102148.20
2018-02-21T18:50:54.593Z,102144.41
2018-02-21T18:53:22.141Z,102154.36
2018-02-21T18:55:49.690Z,102153.78
2018-02-21T18:58:17.468Z,102150.70
2018-02-21T19:00:45.027Z,102151.78
2018-02-21T19:03:12.602Z,102151.08
2018-02-21T19:05:40.455Z,102149.06
2018-02-21T19:08:07.970Z,102155.86
2018-02-21T19:10:35.490Z,102158.92
2018-02-21T19:13:03.049Z,102159.23
2018-02-21T19:15:30.608Z,102156.47
2018-02-21T19:17:58.167Z,102155.99
2018-02-21T19:20:25.753Z,102164.42
2018-02-21T19:22:53.877Z,102165.03
2018-02-21T19:25:21.429Z,102165.27
2018-02-21T19:27:48.967Z,102173.11
2018-02-21T19:30:16.538Z,102165.97
2018-02-21T19:32:44.104Z,102165.83
2018-02-21T19:35:11.728Z,102173.28
2018-02-21T19:37:39.299Z,102169.19
2018-02-21T19:40:06.885Z,102168.50
2018-02-21T19:42:34.480Z,102169.64
2018-02-21T19:45:02.019Z,102174.03
2018-02-21T19:47:29.625Z,102170.97
2018-02-21T19:49:57.156Z,102168.24
2018-02-21T19:52:24.702Z,102173.23
2018-02-21T19:54:52.266Z,102177.67
2018-02-21T19:57:19.799Z,102179.33
2018-02-21T19:59:47.358Z,102179.92
2018-02-21T20:02:14.948Z,102181.20
2018-02-21T20:04:42.577Z,102181.80
2018-02-21T20:07:10.221Z,102189.91
2018-02-21T20:09:38.178Z,102185.80
2018-02-21T20:12:05.744Z,102185.11
2018-02-21T20:14:33.878Z,102182.69
2018-02-21T20:17:02.234Z,102188.60
2018-02-21T20:19:30.616Z,102188.06
2018-02-21T20:21:58.203Z,102190.44
2018-02-21T20:24:25.782Z,102192.13
2018-02-21T20:26:53.318Z,102191.80
2018-02-21T20:29:20.869Z,102194.48
2018-02-21T20:31:48.396Z,102195.58
2018-02-21T20:34:15.950Z,102197.58
2018-02-21T20:36:43.486Z,102195.41
2018-02-21T20:39:11.042Z,102196.35
2018-02-21T20:41:38.606Z,102194.65
2018-02-21T20:44:06.174Z,102199.70
2018-02-21T20:46:33.723Z,102196.22
2018-02-21T20:49:01.308Z,102200.08
2018-02-21T20:51:28.879Z,102200.39
2018-02-21T20:53:56.405Z,102210.05
2018-02-21T20:56:23.941Z,102209.57
2018-02-21T20:58:51.549Z,102208.03
2018-02-21T21:01:19.096Z,102211.48
2018-02-21T21:03:46.857Z,102210.28
2018-02-21T21:06:14.620Z,102211.05
2018-02-21T21:08:42.196Z,102207.78
2018-02-21T21:11:09.876Z,102211.55
2018-02-21T21:13:39.462Z,102204.80
2018-02-21T21:16:07.063Z,102205.05
2018-02-21T21:18:34.610Z,102201.34
2018-02-21T21:21:02.729Z,102198.55
2018-02-21T21:23:34.438Z,102196.20
2018-02-21T21:26:02.887Z,102201.22
2018-02-21T21:28:30.858Z,102197.91
2018-02-21T21:30:58.431Z,102201.56
2018-02-21T21:33:25.977Z,102198.08
2018-02-21T21:35:53.880Z,102197.55
2018-02-21T21:38:21.511Z,102207.33
2018-02-21T21:40:49.031Z,102200.41
2018-02-21T21:43:16.558Z,102195.94
2018-02-21T21:45:44.164Z,102198.62
2018-02-21T21:48:11.978Z,102195.72
2018-02-21T21:50:39.922Z,102195.25
2018-02-21T21:53:07.458Z,102201.94
2018-02-21T21:55:35.027Z,102195.41
2018-02-21T21:58:02.621Z,102193.72
2018-02-21T22:00:30.184Z,102198.35
2018-02-21T22:02:57.810Z,102195.34
2018-02-21T22:05:25.392Z,102195.86
2018-02-21T22:07:52.984Z,102191.90
2018-02-21T22:10:20.505Z,102193.69
2018-02-21T22:12:48.029Z,102192.57
2018-02-21T22:15:15.787Z,102189.42
2018-02-21T22:17:43.442Z,102191.77
2018-02-21T22:20:11.083Z,102186.45
2018-02-21T22:22:38.652Z,102192.64
2018-02-21T22:25:06.511Z,102193.06
2018-02-21T22:27:34.059Z,102192.95
2018-02-21T22:30:01.571Z,102195.59
2018-02-21T22:32:29.386Z,102192.44
2018-02-21T22:34:57.271Z,102193.70
2018-02-21T22:37:24.861Z,102192.77
2018-02-21T22:39:52.423Z,102191.73
2018-02-21T22:42:19.964Z,102189.17
2018-02-21T22:44:49.212Z,102192.63
2018-02-21T22:47:17.072Z,102184.55
2018-02-21T22:49:44.678Z,102190.50
2018-02-21T22:52:12.242Z,102191.03
2018-02-21T22:54:40.653Z,102196.14
2018-02-21T22:57:08.705Z,102193.46
2018-02-21T22:59:37.800Z,102190.91
2018-02-21T23:02:05.370Z,102191.45
2018-02-21T23:04:33.052Z,102192.80
2018-02-21T23:07:00.629Z,102193.63
2018-02-21T23:09:28.741Z,102191.88
2018-02-21T23:11:56.271Z,102190.77
2018-02-21T23:14:24.992Z,102190.84
2018-02-21T23:16:52.522Z,102194.34
2018-02-21T23:19:20.117Z,102191.02
2018-02-21T23:21:47.761Z,102192.27
2018-02-21T23:24:15.306Z,102192.44
2018-02-21T23:26:42.896Z,102191.55
2018-02-21T23:29:10.538Z,102188.02
2018-02-21T23:31:38.079Z,102190.41
2018-02-21T23:34:05.727Z,102189.37
2018-02-21T23:36:33.260Z,102189.65
2018-02-21T23:39:00.876Z,102196.53
2018-02-21T23:41:28.569Z,102193.59
2018-02-21T23:43:56.197Z,102192.50
2018-02-21T23:46:23.738Z,102190.95
2018-02-21T23:48:51.255Z,102193.98
2018-02-21T23:51:18.868Z,102190.81
2018-02-21T23:53:46.438Z,102195.97
2018-02-21T23:56:14.222Z,102192.28
2018-02-21T23:58:41.743Z,102194.91
